sensor_id;sensor_type;location;lat;lon;timestamp;P1;durP1;ratioP1;P2;durP2;ratioP2
38653;SDS011;24413;52.450;20.706;2023-02-26T00:02:14;6.22;;;2.70;;
38653;SDS011;24413;52.450;20.706;2023-02-26T00:04:40;2.88;;;2.00;;
38653;SDS011;24413;52.450;20.706;2023-02-26T00:07:05;3.80;;;2.65;;
38653;SDS011;24413;52.450;20.706;2023-02-26T00:09:31;4.45;;;2.78;;
38653;SDS011;24413;52.450;20.706;2023-02-26T00:11:56;3.20;;;2.88;;
38653;SDS011;24413;52.450;20.706;2023-02-26T00:14:22;2.97;;;2.47;;
38653;SDS011;24413;52.450;20.706;2023-02-26T00:17:13;3.17;;;2.60;;
38653;SDS011;24413;52.450;20.706;2023-02-26T00:19:33;2.90;;;2.30;;
38653;SDS011;24413;52.450;20.706;2023-02-26T00:21:58;3.05;;;2.50;;
38653;SDS011;24413;52.450;20.706;2023-02-26T00:24:23;5.00;;;2.63;;
38653;SDS011;24413;52.450;20.706;2023-02-26T00:26:49;2.90;;;2.60;;
38653;SDS011;24413;52.450;20.706;2023-02-26T00:29:14;6.10;;;2.65;;
38653;SDS011;24413;52.450;20.706;2023-02-26T00:31:39;3.28;;;2.72;;
38653;SDS011;24413;52.450;20.706;2023-02-26T00:34:05;3.05;;;2.08;;
38653;SDS011;24413;52.450;20.706;2023-02-26T00:36:39;5.10;;;2.60;;
38653;SDS011;24413;52.450;20.706;2023-02-26T00:39:20;3.35;;;2.53;;
38653;SDS011;24413;52.450;20.706;2023-02-26T00:41:50;4.30;;;2.63;;
38653;SDS011;24413;52.450;20.706;2023-02-26T00:44:15;4.65;;;2.92;;
38653;SDS011;24413;52.450;20.706;2023-02-26T00:46:43;2.88;;;2.60;;
38653;SDS011;24413;52.450;20.706;2023-02-26T00:49:17;4.15;;;3.08;;
38653;SDS011;24413;52.450;20.706;2023-02-26T00:56:35;4.30;;;3.00;;
38653;SDS011;24413;52.450;20.706;2023-02-26T00:59:01;3.38;;;2.60;;
38653;SDS011;24413;52.450;20.706;2023-02-26T01:01:26;3.05;;;2.55;;
38653;SDS011;24413;52.450;20.706;2023-02-26T01:03:52;4.07;;;2.45;;
38653;SDS011;24413;52.450;20.706;2023-02-26T01:06:18;3.60;;;3.22;;
38653;SDS011;24413;52.450;20.706;2023-02-26T01:08:51;3.75;;;2.72;;
38653;SDS011;24413;52.450;20.706;2023-02-26T01:11:18;3.20;;;2.88;;
38653;SDS011;24413;52.450;20.706;2023-02-26T01:13:44;3.20;;;2.90;;
38653;SDS011;24413;52.450;20.706;2023-02-26T01:16:11;5.05;;;3.35;;
38653;SDS011;24413;52.450;20.706;2023-02-26T01:18:42;3.33;;;2.83;;
38653;SDS011;24413;52.450;20.706;2023-02-26T01:21:09;3.78;;;2.97;;
38653;SDS011;24413;52.450;20.706;2023-02-26T01:23:39;3.08;;;2.78;;
38653;SDS011;24413;52.450;20.706;2023-02-26T01:26:15;5.57;;;3.45;;
38653;SDS011;24413;52.450;20.706;2023-02-26T01:28:44;3.95;;;2.97;;
38653;SDS011;24413;52.450;20.706;2023-02-26T01:31:13;4.75;;;3.25;;
38653;SDS011;24413;52.450;20.706;2023-02-26T01:33:43;4.85;;;3.65;;
38653;SDS011;24413;52.450;20.706;2023-02-26T01:36:19;4.75;;;3.35;;
38653;SDS011;24413;52.450;20.706;2023-02-26T01:41:30;4.03;;;3.22;;
38653;SDS011;24413;52.450;20.706;2023-02-26T01:49:24;5.00;;;3.50;;
38653;SDS011;24413;52.450;20.706;2023-02-26T01:51:59;4.10;;;3.53;;
38653;SDS011;24413;52.450;20.706;2023-02-26T01:57:00;5.60;;;3.35;;
38653;SDS011;24413;52.450;20.706;2023-02-26T01:59:29;3.92;;;3.10;;
38653;SDS011;24413;52.450;20.706;2023-02-26T02:01:55;4.93;;;3.45;;
38653;SDS011;24413;52.450;20.706;2023-02-26T02:04:20;3.33;;;3.00;;
38653;SDS011;24413;52.450;20.706;2023-02-26T02:06:46;3.55;;;3.25;;
38653;SDS011;24413;52.450;20.706;2023-02-26T02:09:12;4.75;;;3.05;;
38653;SDS011;24413;52.450;20.706;2023-02-26T02:14:20;4.07;;;3.25;;
38653;SDS011;24413;52.450;20.706;2023-02-26T02:16:57;5.75;;;4.07;;
38653;SDS011;24413;52.450;20.706;2023-02-26T02:27:34;5.97;;;4.15;;
38653;SDS011;24413;52.450;20.706;2023-02-26T02:32:30;4.75;;;3.47;;
38653;SDS011;24413;52.450;20.706;2023-02-26T02:35:08;4.90;;;4.13;;
38653;SDS011;24413;52.450;20.706;2023-02-26T02:37:46;3.88;;;3.42;;
38653;SDS011;24413;52.450;20.706;2023-02-26T02:40:32;6.20;;;4.20;;
38653;SDS011;24413;52.450;20.706;2023-02-26T02:42:59;5.45;;;3.60;;
38653;SDS011;24413;52.450;20.706;2023-02-26T02:45:30;4.75;;;3.95;;
38653;SDS011;24413;52.450;20.706;2023-02-26T02:48:01;6.95;;;4.05;;
38653;SDS011;24413;52.450;20.706;2023-02-26T02:50:35;4.70;;;3.50;;
38653;SDS011;24413;52.450;20.706;2023-02-26T02:53:07;5.03;;;3.75;;
38653;SDS011;24413;52.450;20.706;2023-02-26T02:55:34;5.25;;;3.92;;
38653;SDS011;24413;52.450;20.706;2023-02-26T02:58:02;5.03;;;3.92;;
38653;SDS011;24413;52.450;20.706;2023-02-26T03:00:29;3.33;;;3.03;;
38653;SDS011;24413;52.450;20.706;2023-02-26T03:03:14;4.93;;;3.65;;
38653;SDS011;24413;52.450;20.706;2023-02-26T03:05:40;3.50;;;3.20;;
38653;SDS011;24413;52.450;20.706;2023-02-26T03:08:08;6.43;;;3.92;;
38653;SDS011;24413;52.450;20.706;2023-02-26T03:10:34;5.65;;;3.85;;
38653;SDS011;24413;52.450;20.706;2023-02-26T03:12:59;4.82;;;3.88;;
38653;SDS011;24413;52.450;20.706;2023-02-26T03:15:30;5.75;;;4.25;;
38653;SDS011;24413;52.450;20.706;2023-02-26T03:18:33;5.38;;;3.97;;
38653;SDS011;24413;52.450;20.706;2023-02-26T03:20:57;6.15;;;3.80;;
38653;SDS011;24413;52.450;20.706;2023-02-26T03:23:30;4.85;;;4.22;;
38653;SDS011;24413;52.450;20.706;2023-02-26T03:26:07;4.40;;;3.33;;
38653;SDS011;24413;52.450;20.706;2023-02-26T03:38:54;6.60;;;4.20;;
38653;SDS011;24413;52.450;20.706;2023-02-26T03:41:43;6.00;;;3.67;;
38653;SDS011;24413;52.450;20.706;2023-02-26T03:44:07;4.70;;;3.33;;
38653;SDS011;24413;52.450;20.706;2023-02-26T03:46:40;3.63;;;3.28;;
38653;SDS011;24413;52.450;20.706;2023-02-26T03:49:09;6.43;;;4.47;;
38653;SDS011;24413;52.450;20.706;2023-02-26T03:51:35;2.92;;;2.60;;
38653;SDS011;24413;52.450;20.706;2023-02-26T03:54:18;3.67;;;2.70;;
38653;SDS011;24413;52.450;20.706;2023-02-26T03:56:45;4.57;;;2.80;;
38653;SDS011;24413;52.450;20.706;2023-02-26T03:59:11;4.05;;;2.70;;
38653;SDS011;24413;52.450;20.706;2023-02-26T04:04:09;3.25;;;2.83;;
38653;SDS011;24413;52.450;20.706;2023-02-26T04:06:35;3.47;;;2.95;;
38653;SDS011;24413;52.450;20.706;2023-02-26T04:09:01;3.28;;;2.50;;
38653;SDS011;24413;52.450;20.706;2023-02-26T04:11:26;4.57;;;2.60;;
38653;SDS011;24413;52.450;20.706;2023-02-26T04:13:53;3.20;;;2.90;;
38653;SDS011;24413;52.450;20.706;2023-02-26T04:16:18;4.50;;;4.10;;
38653;SDS011;24413;52.450;20.706;2023-02-26T04:18:44;5.13;;;3.50;;
38653;SDS011;24413;52.450;20.706;2023-02-26T04:21:10;3.03;;;2.40;;
38653;SDS011;24413;52.450;20.706;2023-02-26T04:23:35;3.40;;;2.50;;
38653;SDS011;24413;52.450;20.706;2023-02-26T04:26:00;5.15;;;3.17;;
38653;SDS011;24413;52.450;20.706;2023-02-26T04:28:25;4.00;;;2.80;;
38653;SDS011;24413;52.450;20.706;2023-02-26T04:30:51;3.33;;;2.63;;
38653;SDS011;24413;52.450;20.706;2023-02-26T04:33:16;3.63;;;2.60;;
38653;SDS011;24413;52.450;20.706;2023-02-26T04:35:41;2.72;;;2.30;;
38653;SDS011;24413;52.450;20.706;2023-02-26T04:38:07;3.70;;;2.83;;
38653;SDS011;24413;52.450;20.706;2023-02-26T04:40:32;2.88;;;2.15;;
38653;SDS011;24413;52.450;20.706;2023-02-26T04:42:57;2.53;;;1.88;;
38653;SDS011;24413;52.450;20.706;2023-02-26T04:45:22;2.15;;;1.60;;
38653;SDS011;24413;52.450;20.706;2023-02-26T04:47:48;2.60;;;1.60;;
38653;SDS011;24413;52.450;20.706;2023-02-26T04:50:13;2.40;;;1.70;;
38653;SDS011;24413;52.450;20.706;2023-02-26T04:52:38;1.88;;;1.30;;
38653;SDS011;24413;52.450;20.706;2023-02-26T04:55:04;1.85;;;1.67;;
38653;SDS011;24413;52.450;20.706;2023-02-26T04:57:31;3.47;;;2.05;;
38653;SDS011;24413;52.450;20.706;2023-02-26T04:59:56;7.07;;;2.42;;
38653;SDS011;24413;52.450;20.706;2023-02-26T05:02:21;4.10;;;2.03;;
38653;SDS011;24413;52.450;20.706;2023-02-26T05:04:47;2.40;;;1.85;;
38653;SDS011;24413;52.450;20.706;2023-02-26T05:07:12;4.40;;;2.20;;
38653;SDS011;24413;52.450;20.706;2023-02-26T05:09:37;3.78;;;2.00;;
38653;SDS011;24413;52.450;20.706;2023-02-26T05:12:02;2.67;;;1.58;;
38653;SDS011;24413;52.450;20.706;2023-02-26T05:14:28;2.60;;;1.63;;
38653;SDS011;24413;52.450;20.706;2023-02-26T05:16:53;3.35;;;1.90;;
38653;SDS011;24413;52.450;20.706;2023-02-26T05:19:18;4.70;;;1.63;;
38653;SDS011;24413;52.450;20.706;2023-02-26T05:21:44;2.30;;;1.13;;
38653;SDS011;24413;52.450;20.706;2023-02-26T05:24:09;3.15;;;1.67;;
38653;SDS011;24413;52.450;20.706;2023-02-26T05:26:34;1.63;;;1.23;;
38653;SDS011;24413;52.450;20.706;2023-02-26T05:29:00;2.03;;;1.08;;
38653;SDS011;24413;52.450;20.706;2023-02-26T05:31:26;4.72;;;1.48;;
38653;SDS011;24413;52.450;20.706;2023-02-26T05:33:51;1.60;;;1.23;;
38653;SDS011;24413;52.450;20.706;2023-02-26T05:36:16;4.10;;;1.10;;
38653;SDS011;24413;52.450;20.706;2023-02-26T05:38:42;2.35;;;1.33;;
38653;SDS011;24413;52.450;20.706;2023-02-26T05:41:07;3.03;;;1.70;;
38653;SDS011;24413;52.450;20.706;2023-02-26T05:43:32;2.33;;;1.20;;
38653;SDS011;24413;52.450;20.706;2023-02-26T05:45:58;3.33;;;1.50;;
38653;SDS011;24413;52.450;20.706;2023-02-26T05:48:23;2.15;;;1.58;;
38653;SDS011;24413;52.450;20.706;2023-02-26T05:50:49;1.80;;;1.35;;
38653;SDS011;24413;52.450;20.706;2023-02-26T05:53:14;3.40;;;1.15;;
38653;SDS011;24413;52.450;20.706;2023-02-26T05:55:39;1.50;;;1.00;;
38653;SDS011;24413;52.450;20.706;2023-02-26T05:58:05;2.55;;;1.33;;
38653;SDS011;24413;52.450;20.706;2023-02-26T06:00:30;4.40;;;1.20;;
38653;SDS011;24413;52.450;20.706;2023-02-26T06:02:55;3.90;;;1.95;;
38653;SDS011;24413;52.450;20.706;2023-02-26T06:05:21;3.45;;;2.40;;
38653;SDS011;24413;52.450;20.706;2023-02-26T06:07:46;2.28;;;2.08;;
38653;SDS011;24413;52.450;20.706;2023-02-26T06:10:11;4.00;;;2.30;;
38653;SDS011;24413;52.450;20.706;2023-02-26T06:12:37;2.47;;;1.92;;
38653;SDS011;24413;52.450;20.706;2023-02-26T06:15:03;2.55;;;1.95;;
38653;SDS011;24413;52.450;20.706;2023-02-26T06:17:28;3.20;;;1.70;;
38653;SDS011;24413;52.450;20.706;2023-02-26T06:19:54;4.60;;;2.25;;
38653;SDS011;24413;52.450;20.706;2023-02-26T06:22:19;1.63;;;1.23;;
38653;SDS011;24413;52.450;20.706;2023-02-26T06:24:44;2.20;;;1.50;;
38653;SDS011;24413;52.450;20.706;2023-02-26T06:27:09;3.72;;;1.83;;
38653;SDS011;24413;52.450;20.706;2023-02-26T06:29:34;3.92;;;1.98;;
38653;SDS011;24413;52.450;20.706;2023-02-26T06:32:01;2.67;;;1.80;;
38653;SDS011;24413;52.450;20.706;2023-02-26T06:34:27;4.18;;;2.40;;
38653;SDS011;24413;52.450;20.706;2023-02-26T06:36:52;4.32;;;1.98;;
38653;SDS011;24413;52.450;20.706;2023-02-26T06:39:17;10.35;;;3.58;;
38653;SDS011;24413;52.450;20.706;2023-02-26T06:41:42;8.75;;;3.70;;
38653;SDS011;24413;52.450;20.706;2023-02-26T06:44:08;3.70;;;2.63;;
38653;SDS011;24413;52.450;20.706;2023-02-26T06:46:34;4.70;;;2.90;;
38653;SDS011;24413;52.450;20.706;2023-02-26T06:48:59;3.85;;;2.38;;
38653;SDS011;24413;52.450;20.706;2023-02-26T06:51:24;3.80;;;1.80;;
38653;SDS011;24413;52.450;20.706;2023-02-26T06:53:50;2.28;;;1.70;;
38653;SDS011;24413;52.450;20.706;2023-02-26T06:56:15;2.67;;;2.08;;
38653;SDS011;24413;52.450;20.706;2023-02-26T06:58:40;4.25;;;1.77;;
38653;SDS011;24413;52.450;20.706;2023-02-26T07:01:05;3.50;;;1.55;;
38653;SDS011;24413;52.450;20.706;2023-02-26T07:03:30;2.47;;;1.40;;
38653;SDS011;24413;52.450;20.706;2023-02-26T07:05:56;9.23;;;1.83;;
38653;SDS011;24413;52.450;20.706;2023-02-26T07:08:21;4.10;;;1.80;;
38653;SDS011;24413;52.450;20.706;2023-02-26T07:10:48;3.25;;;1.80;;
38653;SDS011;24413;52.450;20.706;2023-02-26T07:13:14;2.80;;;2.10;;
38653;SDS011;24413;52.450;20.706;2023-02-26T07:15:39;4.03;;;2.70;;
38653;SDS011;24413;52.450;20.706;2023-02-26T07:18:04;3.38;;;1.98;;
38653;SDS011;24413;52.450;20.706;2023-02-26T07:20:30;2.08;;;1.40;;
38653;SDS011;24413;52.450;20.706;2023-02-26T07:22:55;1.67;;;1.23;;
38653;SDS011;24413;52.450;20.706;2023-02-26T07:25:21;1.38;;;1.20;;
38653;SDS011;24413;52.450;20.706;2023-02-26T07:27:46;1.88;;;1.60;;
38653;SDS011;24413;52.450;20.706;2023-02-26T07:30:12;2.45;;;1.70;;
38653;SDS011;24413;52.450;20.706;2023-02-26T07:32:37;2.22;;;1.30;;
38653;SDS011;24413;52.450;20.706;2023-02-26T07:35:03;4.60;;;2.00;;
38653;SDS011;24413;52.450;20.706;2023-02-26T07:37:28;4.57;;;3.20;;
38653;SDS011;24413;52.450;20.706;2023-02-26T07:39:54;1.27;;;1.17;;
38653;SDS011;24413;52.450;20.706;2023-02-26T07:42:19;1.73;;;1.27;;
38653;SDS011;24413;52.450;20.706;2023-02-26T07:44:44;1.80;;;1.50;;
38653;SDS011;24413;52.450;20.706;2023-02-26T07:47:10;2.53;;;1.65;;
38653;SDS011;24413;52.450;20.706;2023-02-26T07:49:35;3.13;;;1.35;;
38653;SDS011;24413;52.450;20.706;2023-02-26T07:52:01;2.80;;;1.67;;
38653;SDS011;24413;52.450;20.706;2023-02-26T07:54:26;7.50;;;4.50;;
38653;SDS011;24413;52.450;20.706;2023-02-26T07:56:51;24.92;;;11.82;;
38653;SDS011;24413;52.450;20.706;2023-02-26T07:59:17;6.07;;;3.10;;
38653;SDS011;24413;52.450;20.706;2023-02-26T08:01:42;4.50;;;2.78;;
38653;SDS011;24413;52.450;20.706;2023-02-26T08:04:07;2.33;;;1.85;;
38653;SDS011;24413;52.450;20.706;2023-02-26T08:06:32;5.80;;;1.60;;
38653;SDS011;24413;52.450;20.706;2023-02-26T08:08:59;5.82;;;1.70;;
38653;SDS011;24413;52.450;20.706;2023-02-26T08:11:24;2.17;;;1.50;;
38653;SDS011;24413;52.450;20.706;2023-02-26T08:13:49;1.83;;;1.50;;
38653;SDS011;24413;52.450;20.706;2023-02-26T08:16:15;2.88;;;2.17;;
38653;SDS011;24413;52.450;20.706;2023-02-26T08:18:40;3.90;;;1.80;;
38653;SDS011;24413;52.450;20.706;2023-02-26T08:21:06;5.00;;;2.10;;
38653;SDS011;24413;52.450;20.706;2023-02-26T08:23:31;4.07;;;2.28;;
38653;SDS011;24413;52.450;20.706;2023-02-26T08:26:03;4.57;;;2.38;;
38653;SDS011;24413;52.450;20.706;2023-02-26T08:28:29;3.17;;;1.92;;
38653;SDS011;24413;52.450;20.706;2023-02-26T08:30:54;2.58;;;2.00;;
38653;SDS011;24413;52.450;20.706;2023-02-26T08:33:20;3.10;;;2.35;;
38653;SDS011;24413;52.450;20.706;2023-02-26T08:35:45;5.63;;;2.60;;
38653;SDS011;24413;52.450;20.706;2023-02-26T08:38:11;6.50;;;3.63;;
38653;SDS011;24413;52.450;20.706;2023-02-26T08:40:36;8.80;;;3.42;;
38653;SDS011;24413;52.450;20.706;2023-02-26T08:43:01;4.97;;;2.70;;
38653;SDS011;24413;52.450;20.706;2023-02-26T08:45:28;3.83;;;2.33;;
38653;SDS011;24413;52.450;20.706;2023-02-26T08:47:53;3.72;;;2.33;;
38653;SDS011;24413;52.450;20.706;2023-02-26T08:50:19;5.18;;;2.92;;
38653;SDS011;24413;52.450;20.706;2023-02-26T08:52:44;8.95;;;3.72;;
38653;SDS011;24413;52.450;20.706;2023-02-26T08:55:10;7.22;;;3.70;;
38653;SDS011;24413;52.450;20.706;2023-02-26T08:57:36;6.15;;;3.55;;
38653;SDS011;24413;52.450;20.706;2023-02-26T09:00:02;6.43;;;3.75;;
38653;SDS011;24413;52.450;20.706;2023-02-26T09:02:29;8.73;;;3.88;;
38653;SDS011;24413;52.450;20.706;2023-02-26T09:04:54;5.32;;;3.05;;
38653;SDS011;24413;52.450;20.706;2023-02-26T09:07:19;5.78;;;3.15;;
38653;SDS011;24413;52.450;20.706;2023-02-26T09:09:44;6.07;;;3.88;;
38653;SDS011;24413;52.450;20.706;2023-02-26T09:12:10;12.52;;;4.80;;
38653;SDS011;24413;52.450;20.706;2023-02-26T09:14:35;6.03;;;3.70;;
38653;SDS011;24413;52.450;20.706;2023-02-26T09:17:00;9.55;;;4.63;;
38653;SDS011;24413;52.450;20.706;2023-02-26T09:19:25;7.72;;;3.72;;
38653;SDS011;24413;52.450;20.706;2023-02-26T09:21:51;5.28;;;3.50;;
38653;SDS011;24413;52.450;20.706;2023-02-26T09:24:16;7.13;;;3.22;;
38653;SDS011;24413;52.450;20.706;2023-02-26T09:26:41;5.25;;;3.40;;
38653;SDS011;24413;52.450;20.706;2023-02-26T09:29:07;3.83;;;2.53;;
38653;SDS011;24413;52.450;20.706;2023-02-26T09:31:32;4.10;;;2.22;;
38653;SDS011;24413;52.450;20.706;2023-02-26T09:33:57;5.05;;;2.30;;
38653;SDS011;24413;52.450;20.706;2023-02-26T09:36:23;9.38;;;4.15;;
38653;SDS011;24413;52.450;20.706;2023-02-26T09:38:48;8.43;;;3.72;;
38653;SDS011;24413;52.450;20.706;2023-02-26T09:41:19;8.20;;;3.65;;
38653;SDS011;24413;52.450;20.706;2023-02-26T09:46:36;4.85;;;1.80;;
38653;SDS011;24413;52.450;20.706;2023-02-26T09:49:04;2.10;;;1.60;;
38653;SDS011;24413;52.450;20.706;2023-02-26T09:51:31;2.45;;;1.50;;
38653;SDS011;24413;52.450;20.706;2023-02-26T09:53:58;1.73;;;1.42;;
38653;SDS011;24413;52.450;20.706;2023-02-26T09:56:25;2.42;;;2.13;;
38653;SDS011;24413;52.450;20.706;2023-02-26T09:58:51;2.70;;;1.50;;
38653;SDS011;24413;52.450;20.706;2023-02-26T10:06:32;3.88;;;1.80;;
38653;SDS011;24413;52.450;20.706;2023-02-26T10:16:46;2.17;;;1.83;;
38653;SDS011;24413;52.450;20.706;2023-02-26T10:19:13;5.25;;;1.90;;
38653;SDS011;24413;52.450;20.706;2023-02-26T10:21:43;3.38;;;1.98;;
38653;SDS011;24413;52.450;20.706;2023-02-26T10:24:28;2.25;;;1.48;;
38653;SDS011;24413;52.450;20.706;2023-02-26T10:27:17;2.22;;;1.52;;
38653;SDS011;24413;52.450;20.706;2023-02-26T10:29:50;2.28;;;1.85;;
38653;SDS011;24413;52.450;20.706;2023-02-26T10:32:24;2.50;;;1.63;;
38653;SDS011;24413;52.450;20.706;2023-02-26T10:34:57;4.68;;;2.47;;
38653;SDS011;24413;52.450;20.706;2023-02-26T10:37:27;7.57;;;2.85;;
38653;SDS011;24413;52.450;20.706;2023-02-26T10:40:16;4.05;;;2.20;;
38653;SDS011;24413;52.450;20.706;2023-02-26T10:42:42;4.65;;;2.80;;
38653;SDS011;24413;52.450;20.706;2023-02-26T10:50:24;4.43;;;2.50;;
38653;SDS011;24413;52.450;20.706;2023-02-26T10:52:51;8.07;;;3.47;;
38653;SDS011;24413;52.450;20.706;2023-02-26T10:58:30;11.77;;;4.13;;
38653;SDS011;24413;52.450;20.706;2023-02-26T11:00:38;5.35;;;2.78;;
38653;SDS011;24413;52.450;20.706;2023-02-26T11:03:04;5.68;;;2.72;;
38653;SDS011;24413;52.450;20.706;2023-02-26T11:05:31;4.50;;;2.22;;
38653;SDS011;24413;52.450;20.706;2023-02-26T11:07:57;3.83;;;2.83;;
38653;SDS011;24413;52.450;20.706;2023-02-26T11:10:25;3.97;;;1.92;;
38653;SDS011;24413;52.450;20.706;2023-02-26T11:12:52;1.60;;;1.30;;
38653;SDS011;24413;52.450;20.706;2023-02-26T11:15:21;4.65;;;2.47;;
38653;SDS011;24413;52.450;20.706;2023-02-26T11:17:47;7.78;;;3.05;;
38653;SDS011;24413;52.450;20.706;2023-02-26T11:20:15;6.88;;;2.83;;
38653;SDS011;24413;52.450;20.706;2023-02-26T11:22:43;4.03;;;2.33;;
38653;SDS011;24413;52.450;20.706;2023-02-26T11:25:13;4.95;;;2.47;;
38653;SDS011;24413;52.450;20.706;2023-02-26T11:27:38;7.57;;;2.50;;
38653;SDS011;24413;52.450;20.706;2023-02-26T11:30:06;4.38;;;2.40;;
38653;SDS011;24413;52.450;20.706;2023-02-26T11:32:32;9.75;;;3.15;;
38653;SDS011;24413;52.450;20.706;2023-02-26T11:34:58;5.75;;;2.15;;
38653;SDS011;24413;52.450;20.706;2023-02-26T11:37:27;4.32;;;2.05;;
38653;SDS011;24413;52.450;20.706;2023-02-26T11:39:57;5.38;;;2.10;;
38653;SDS011;24413;52.450;20.706;2023-02-26T11:42:23;4.75;;;2.00;;
38653;SDS011;24413;52.450;20.706;2023-02-26T11:44:49;6.28;;;1.98;;
38653;SDS011;24413;52.450;20.706;2023-02-26T11:47:25;5.35;;;2.30;;
38653;SDS011;24413;52.450;20.706;2023-02-26T11:49:54;6.53;;;1.95;;
38653;SDS011;24413;52.450;20.706;2023-02-26T11:52:32;3.60;;;1.60;;
38653;SDS011;24413;52.450;20.706;2023-02-26T11:55:02;3.22;;;1.75;;
38653;SDS011;24413;52.450;20.706;2023-02-26T11:57:29;1.35;;;1.25;;
38653;SDS011;24413;52.450;20.706;2023-02-26T11:59:56;3.85;;;1.98;;
38653;SDS011;24413;52.450;20.706;2023-02-26T12:02:23;6.85;;;2.28;;
38653;SDS011;24413;52.450;20.706;2023-02-26T12:04:50;2.58;;;1.55;;
38653;SDS011;24413;52.450;20.706;2023-02-26T12:07:16;5.43;;;2.60;;
38653;SDS011;24413;52.450;20.706;2023-02-26T12:09:42;7.15;;;2.47;;
38653;SDS011;24413;52.450;20.706;2023-02-26T12:12:27;3.80;;;2.33;;
38653;SDS011;24413;52.450;20.706;2023-02-26T12:28:18;5.35;;;2.30;;
38653;SDS011;24413;52.450;20.706;2023-02-26T12:36:23;6.00;;;1.98;;
38653;SDS011;24413;52.450;20.706;2023-02-26T12:44:13;5.45;;;2.83;;
38653;SDS011;24413;52.450;20.706;2023-02-26T12:46:45;4.65;;;2.40;;
38653;SDS011;24413;52.450;20.706;2023-02-26T12:51:56;2.97;;;1.63;;
38653;SDS011;24413;52.450;20.706;2023-02-26T12:57:06;4.60;;;1.90;;
38653;SDS011;24413;52.450;20.706;2023-02-26T12:59:41;11.38;;;2.63;;
38653;SDS011;24413;52.450;20.706;2023-02-26T13:02:33;4.63;;;2.10;;
38653;SDS011;24413;52.450;20.706;2023-02-26T13:09:56;6.25;;;1.60;;
38653;SDS011;24413;52.450;20.706;2023-02-26T13:12:41;3.80;;;1.80;;
38653;SDS011;24413;52.450;20.706;2023-02-26T13:15:20;7.13;;;1.58;;
38653;SDS011;24413;52.450;20.706;2023-02-26T13:25:40;3.72;;;1.63;;
38653;SDS011;24413;52.450;20.706;2023-02-26T13:30:48;7.32;;;2.53;;
38653;SDS011;24413;52.450;20.706;2023-02-26T13:33:18;8.10;;;3.03;;
38653;SDS011;24413;52.450;20.706;2023-02-26T13:35:44;8.50;;;2.72;;
38653;SDS011;24413;52.450;20.706;2023-02-26T13:38:14;9.60;;;3.08;;
38653;SDS011;24413;52.450;20.706;2023-02-26T13:40:42;6.75;;;3.70;;
38653;SDS011;24413;52.450;20.706;2023-02-26T13:55:53;8.95;;;3.85;;
38653;SDS011;24413;52.450;20.706;2023-02-26T14:16:21;8.15;;;5.03;;
38653;SDS011;24413;52.450;20.706;2023-02-26T14:23:56;13.70;;;4.82;;
38653;SDS011;24413;52.450;20.706;2023-02-26T14:26:23;8.35;;;3.00;;
38653;SDS011;24413;52.450;20.706;2023-02-26T14:31:21;17.35;;;5.70;;
38653;SDS011;24413;52.450;20.706;2023-02-26T14:34:12;10.38;;;4.93;;
38653;SDS011;24413;52.450;20.706;2023-02-26T14:36:35;6.72;;;3.05;;
38653;SDS011;24413;52.450;20.706;2023-02-26T14:39:03;14.77;;;5.63;;
38653;SDS011;24413;52.450;20.706;2023-02-26T14:41:31;20.50;;;7.65;;
38653;SDS011;24413;52.450;20.706;2023-02-26T14:44:01;26.38;;;7.57;;
38653;SDS011;24413;52.450;20.706;2023-02-26T14:46:27;17.13;;;5.93;;
38653;SDS011;24413;52.450;20.706;2023-02-26T14:48:52;8.02;;;3.00;;
38653;SDS011;24413;52.450;20.706;2023-02-26T14:51:34;13.90;;;3.50;;
38653;SDS011;24413;52.450;20.706;2023-02-26T14:56:32;9.30;;;3.58;;
38653;SDS011;24413;52.450;20.706;2023-02-26T15:12:08;8.00;;;2.45;;
38653;SDS011;24413;52.450;20.706;2023-02-26T15:14:58;6.50;;;1.88;;
38653;SDS011;24413;52.450;20.706;2023-02-26T15:45:48;41.70;;;14.10;;
38653;SDS011;24413;52.450;20.706;2023-02-26T15:48:34;24.20;;;9.48;;
38653;SDS011;24413;52.450;20.706;2023-02-26T15:51:06;19.10;;;8.45;;
38653;SDS011;24413;52.450;20.706;2023-02-26T15:53:36;29.73;;;9.57;;
38653;SDS011;24413;52.450;20.706;2023-02-26T15:56:06;24.58;;;11.40;;
38653;SDS011;24413;52.450;20.706;2023-02-26T15:58:34;60.42;;;25.77;;
38653;SDS011;24413;52.450;20.706;2023-02-26T16:01:00;88.85;;;34.72;;
38653;SDS011;24413;52.450;20.706;2023-02-26T16:03:30;94.15;;;41.13;;
38653;SDS011;24413;52.450;20.706;2023-02-26T16:05:56;43.42;;;18.33;;
38653;SDS011;24413;52.450;20.706;2023-02-26T16:08:22;34.58;;;15.52;;
38653;SDS011;24413;52.450;20.706;2023-02-26T16:10:48;18.50;;;7.43;;
38653;SDS011;24413;52.450;20.706;2023-02-26T16:13:15;15.57;;;5.82;;
38653;SDS011;24413;52.450;20.706;2023-02-26T16:15:42;13.90;;;5.80;;
38653;SDS011;24413;52.450;20.706;2023-02-26T16:18:12;17.45;;;7.97;;
38653;SDS011;24413;52.450;20.706;2023-02-26T16:20:40;17.42;;;8.00;;
38653;SDS011;24413;52.450;20.706;2023-02-26T16:23:09;19.80;;;8.60;;
38653;SDS011;24413;52.450;20.706;2023-02-26T16:28:03;28.05;;;16.45;;
38653;SDS011;24413;52.450;20.706;2023-02-26T16:35:46;11.15;;;5.60;;
38653;SDS011;24413;52.450;20.706;2023-02-26T16:38:16;11.90;;;4.18;;
38653;SDS011;24413;52.450;20.706;2023-02-26T16:40:43;10.45;;;5.22;;
38653;SDS011;24413;52.450;20.706;2023-02-26T16:45:55;19.77;;;8.80;;
38653;SDS011;24413;52.450;20.706;2023-02-26T16:48:25;16.48;;;8.63;;
38653;SDS011;24413;52.450;20.706;2023-02-26T16:51:01;11.52;;;7.03;;
38653;SDS011;24413;52.450;20.706;2023-02-26T16:53:36;17.45;;;6.75;;
38653;SDS011;24413;52.450;20.706;2023-02-26T16:56:03;17.83;;;9.75;;
38653;SDS011;24413;52.450;20.706;2023-02-26T16:58:29;10.50;;;4.20;;
38653;SDS011;24413;52.450;20.706;2023-02-26T17:01:01;5.97;;;2.47;;
38653;SDS011;24413;52.450;20.706;2023-02-26T17:03:28;12.68;;;3.45;;
38653;SDS011;24413;52.450;20.706;2023-02-26T17:05:58;12.73;;;4.15;;
38653;SDS011;24413;52.450;20.706;2023-02-26T17:08:31;7.05;;;3.08;;
38653;SDS011;24413;52.450;20.706;2023-02-26T17:13:30;9.63;;;3.28;;
38653;SDS011;24413;52.450;20.706;2023-02-26T17:16:00;9.13;;;3.47;;
38653;SDS011;24413;52.450;20.706;2023-02-26T17:18:26;9.52;;;2.90;;
38653;SDS011;24413;52.450;20.706;2023-02-26T17:20:51;9.80;;;2.95;;
38653;SDS011;24413;52.450;20.706;2023-02-26T17:23:17;7.18;;;2.80;;
38653;SDS011;24413;52.450;20.706;2023-02-26T17:25:43;9.65;;;2.67;;
38653;SDS011;24413;52.450;20.706;2023-02-26T17:28:11;11.23;;;3.55;;
38653;SDS011;24413;52.450;20.706;2023-02-26T17:30:37;8.63;;;4.55;;
38653;SDS011;24413;52.450;20.706;2023-02-26T17:33:03;11.90;;;4.45;;
38653;SDS011;24413;52.450;20.706;2023-02-26T17:35:31;11.48;;;5.30;;
38653;SDS011;24413;52.450;20.706;2023-02-26T17:37:57;14.13;;;6.57;;
38653;SDS011;24413;52.450;20.706;2023-02-26T17:40:27;10.38;;;4.47;;
38653;SDS011;24413;52.450;20.706;2023-02-26T17:42:53;17.00;;;5.78;;
38653;SDS011;24413;52.450;20.706;2023-02-26T17:45:19;18.42;;;7.00;;
38653;SDS011;24413;52.450;20.706;2023-02-26T17:47:45;10.90;;;4.95;;
38653;SDS011;24413;52.450;20.706;2023-02-26T17:52:39;8.98;;;3.40;;
38653;SDS011;24413;52.450;20.706;2023-02-26T17:55:05;9.30;;;4.97;;
38653;SDS011;24413;52.450;20.706;2023-02-26T17:57:30;9.25;;;3.90;;
38653;SDS011;24413;52.450;20.706;2023-02-26T17:59:55;8.88;;;3.50;;
38653;SDS011;24413;52.450;20.706;2023-02-26T19:18:11;10.20;;;3.30;;
38653;SDS011;24413;52.450;20.706;2023-02-26T19:20:37;6.15;;;2.90;;
38653;SDS011;24413;52.450;20.706;2023-02-26T19:23:03;9.15;;;3.03;;